createdAt,value
2023-04-16T00:00:56.668Z,1008.54
2023-04-16T00:01:56.945Z,1008.49
2023-04-16T00:02:56.840Z,1008.54
2023-04-16T00:03:56.816Z,1008.51
2023-04-16T00:04:56.788Z,1008.58
2023-04-16T00:05:56.748Z,1008.57
2023-04-16T00:06:56.750Z,1008.65
2023-04-16T00:07:56.799Z,1008.62
2023-04-16T00:08:56.782Z,1008.66
2023-04-16T00:09:56.826Z,1008.60
2023-04-16T00:10:56.788Z,1008.62
2023-04-16T00:11:56.806Z,1008.61
2023-04-16T00:12:56.853Z,1008.67
2023-04-16T00:13:56.863Z,1008.68
2023-04-16T00:14:56.923Z,1008.68
2023-04-16T00:15:56.877Z,1008.67
2023-04-16T00:16:56.919Z,1008.68
2023-04-16T00:17:56.948Z,1008.67
2023-04-16T00:18:56.910Z,1008.68
2023-04-16T00:19:56.949Z,1008.63
2023-04-16T00:20:56.998Z,1008.68
2023-04-16T00:21:56.944Z,1008.69
2023-04-16T00:22:56.942Z,1008.68
2023-04-16T00:23:56.947Z,1008.67
2023-04-16T00:24:56.935Z,1008.70
2023-04-16T00:25:57.031Z,1008.68
2023-04-16T00:26:56.986Z,1008.74
2023-04-16T00:27:57.007Z,1008.70
2023-04-16T00:28:57.030Z,1008.70
2023-04-16T00:29:57.045Z,1008.73
2023-04-16T00:30:57.102Z,1008.70
2023-04-16T00:31:57.066Z,1008.76
2023-04-16T00:32:57.163Z,1008.74
2023-04-16T00:33:57.086Z,1008.77
2023-04-16T00:34:57.114Z,1008.79
2023-04-16T00:35:57.166Z,1008.76
2023-04-16T00:36:57.125Z,1008.76
2023-04-16T00:37:57.136Z,1008.78
2023-04-16T00:38:57.157Z,1008.75
2023-04-16T00:39:57.149Z,1008.79
2023-04-16T00:40:57.238Z,1008.72
2023-04-16T00:41:57.158Z,1008.72
2023-04-16T00:42:57.168Z,1008.75
2023-04-16T00:43:57.174Z,1008.76
2023-04-16T00:44:57.211Z,1008.77
2023-04-16T00:45:57.356Z,1008.73
2023-04-16T00:46:57.231Z,1008.78
2023-04-16T00:47:59.232Z,1008.73
2023-04-16T00:48:57.271Z,1008.75
2023-04-16T00:49:57.264Z,1008.76
2023-04-16T00:50:57.362Z,1008.75
2023-04-16T00:51:57.350Z,1008.78
2023-04-16T00:52:57.304Z,1008.74
2023-04-16T00:53:57.327Z,1008.78
2023-04-16T00:54:57.352Z,1008.79
2023-04-16T00:55:57.420Z,1008.68
2023-04-16T00:56:57.368Z,1008.71
2023-04-16T00:57:57.371Z,1008.72
2023-04-16T00:58:57.388Z,1008.75
2023-04-16T00:59:57.381Z,1008.75
2023-04-16T01:00:57.478Z,1008.76
2023-04-16T01:01:57.511Z,1008.77
2023-04-16T01:02:57.529Z,1008.69
2023-04-16T01:03:57.532Z,1008.73
2023-04-16T01:04:57.449Z,1008.73
2023-04-16T01:05:57.517Z,1008.74
2023-04-16T01:06:57.472Z,1008.74
2023-04-16T01:07:57.506Z,1008.77
2023-04-16T01:08:57.512Z,1008.73
2023-04-16T01:09:57.515Z,1008.79
2023-04-16T01:10:57.607Z,1008.78
2023-04-16T01:11:57.561Z,1008.78
2023-04-16T01:12:57.585Z,1008.81
2023-04-16T01:13:57.620Z,1008.84
2023-04-16T01:14:57.629Z,1008.80
2023-04-16T01:15:57.716Z,1008.82
2023-04-16T01:16:57.731Z,1008.81
2023-04-16T01:17:57.704Z,1008.86
2023-04-16T01:18:57.686Z,1008.91
2023-04-16T01:19:57.735Z,1008.85
2023-04-16T01:20:57.718Z,1008.91
2023-04-16T01:21:57.785Z,1008.95
2023-04-16T01:22:57.734Z,1008.92
2023-04-16T01:23:57.751Z,1008.97
2023-04-16T01:24:57.763Z,1008.94
2023-04-16T01:25:57.806Z,1008.98
2023-04-16T01:26:57.853Z,1008.93
2023-04-16T01:27:57.817Z,1008.94
2023-04-16T01:28:57.818Z,1008.97
2023-04-16T01:29:57.829Z,1008.95
2023-04-16T01:30:57.869Z,1008.95
2023-04-16T01:31:57.913Z,1008.94
2023-04-16T01:32:57.962Z,1008.97
2023-04-16T01:33:57.906Z,1008.90
2023-04-16T01:34:57.915Z,1008.91
2023-04-16T01:35:57.925Z,1008.90
2023-04-16T01:36:58.016Z,1008.94
2023-04-16T01:37:57.952Z,1008.90
2023-04-16T01:38:57.991Z,1008.88
2023-04-16T01:39:58.108Z,1008.88
2023-04-16T01:40:57.989Z,1008.90
2023-04-16T01:41:58.064Z,1008.89
2023-04-16T01:42:58.015Z,1008.91
2023-04-16T01:43:58.047Z,1008.86
2023-04-16T01:44:58.066Z,1008.87
2023-04-16T01:45:58.075Z,1008.87
2023-04-16T01:46:58.377Z,1008.87
2023-04-16T01:47:58.128Z,1008.89
2023-04-16T01:48:58.168Z,1008.91
2023-04-16T01:49:58.135Z,1008.91
2023-04-16T01:50:58.122Z,1008.90
2023-04-16T01:51:58.171Z,1008.92
2023-04-16T01:52:58.218Z,1008.93
2023-04-16T01:53:58.261Z,1008.93
2023-04-16T01:54:58.178Z,1008.96
2023-04-16T01:55:58.196Z,1008.93
2023-04-16T01:56:58.222Z,1008.93
2023-04-16T01:57:58.296Z,1008.95
2023-04-16T01:58:58.279Z,1008.97
2023-04-16T01:59:58.280Z,1008.92
2023-04-16T02:00:58.320Z,1008.95
2023-04-16T02:01:58.345Z,1008.96
2023-04-16T02:02:58.484Z,1008.90
2023-04-16T02:03:58.537Z,1008.94
2023-04-16T02:04:58.363Z,1008.95
2023-04-16T02:05:58.373Z,1008.99
2023-04-16T02:06:58.404Z,1008.94
2023-04-16T02:07:58.474Z,1008.90
2023-04-16T02:08:58.426Z,1009.00
2023-04-16T02:09:58.455Z,1008.96
2023-04-16T02:10:58.582Z,1009.00
2023-04-16T02:11:58.570Z,1009.02
2023-04-16T02:12:58.550Z,1008.96
2023-04-16T02:13:58.763Z,1009.00
2023-04-16T02:14:58.831Z,1008.99
2023-04-16T02:15:58.562Z,1008.98
2023-04-16T02:16:58.565Z,1008.97
2023-04-16T02:17:58.873Z,1009.06
2023-04-16T02:18:59.261Z,1009.01
2023-04-16T02:19:59.265Z,1009.03
2023-04-16T02:20:59.083Z,1009.03
2023-04-16T02:21:58.763Z,1009.01
2023-04-16T02:22:59.006Z,1009.00
2023-04-16T02:23:59.075Z,1009.00
2023-04-16T02:24:58.803Z,1009.01
2023-04-16T02:25:58.758Z,1009.03
2023-04-16T02:26:58.744Z,1009.02
2023-04-16T02:27:58.858Z,1009.05
2023-04-16T02:28:58.865Z,1009.01
2023-04-16T02:29:58.924Z,1009.04
2023-04-16T02:30:58.847Z,1009.07
2023-04-16T02:31:58.932Z,1009.05
2023-04-16T02:32:59.338Z,1009.02
2023-04-16T02:34:20.005Z,1009.04
2023-04-16T02:34:58.946Z,1009.01
2023-04-16T02:35:59.840Z,1009.07
2023-04-16T02:36:59.591Z,1009.04
2023-04-16T02:37:59.189Z,1009.06
2023-04-16T02:38:59.766Z,1009.07
2023-04-16T02:39:59.718Z,1009.07
2023-04-16T02:40:59.103Z,1009.09
2023-04-16T02:41:59.432Z,1009.06
2023-04-16T02:42:59.563Z,1009.07
2023-04-16T02:43:59.443Z,1009.06
2023-04-16T02:44:59.556Z,1009.03
2023-04-16T02:45:59.475Z,1009.04
2023-04-16T02:46:59.584Z,1009.09
2023-04-16T02:47:59.355Z,1009.12
2023-04-16T02:48:59.312Z,1009.17
2023-04-16T02:49:59.329Z,1009.16
2023-04-16T02:50:59.665Z,1009.16
2023-04-16T02:51:59.364Z,1009.17
2023-04-16T02:52:59.472Z,1009.15
2023-04-16T02:53:59.416Z,1009.13
2023-04-16T02:54:59.505Z,1009.19
2023-04-16T02:55:59.513Z,1009.20
2023-04-16T02:56:59.496Z,1009.21
2023-04-16T02:57:59.569Z,1009.15
2023-04-16T02:58:59.567Z,1009.19
2023-04-16T02:59:59.632Z,1009.24
2023-04-16T03:00:59.603Z,1009.24
2023-04-16T03:01:59.885Z,1009.23
2023-04-16T03:02:59.746Z,1009.20
2023-04-16T03:03:59.743Z,1009.25
2023-04-16T03:04:59.792Z,1009.22
2023-04-16T03:05:59.793Z,1009.26
2023-04-16T03:06:59.882Z,1009.27
2023-04-16T03:07:59.873Z,1009.28
2023-04-16T03:08:59.823Z,1009.31
2023-04-16T03:09:59.832Z,1009.34
2023-04-16T03:11:00.295Z,1009.38
2023-04-16T03:11:59.865Z,1009.31
2023-04-16T03:12:59.916Z,1009.36
2023-04-16T03:13:59.931Z,1009.40
2023-04-16T03:14:59.944Z,1009.30
2023-04-16T03:16:00.143Z,1009.32
2023-04-16T03:16:59.991Z,1009.34
2023-04-16T03:18:00.078Z,1009.35
2023-04-16T03:19:00.026Z,1009.38
2023-04-16T03:20:00.113Z,1009.36
2023-04-16T03:21:00.135Z,1009.32
2023-04-16T03:22:00.122Z,1009.34
2023-04-16T03:23:00.388Z,1009.38
2023-04-16T03:24:00.159Z,1009.36
2023-04-16T03:25:00.220Z,1009.38
2023-04-16T03:26:00.296Z,1009.38
2023-04-16T03:27:00.235Z,1009.38
2023-04-16T03:28:00.257Z,1009.40
2023-04-16T03:29:00.269Z,1009.40
2023-04-16T03:30:00.360Z,1009.39
2023-04-16T03:31:00.349Z,1009.38
2023-04-16T03:32:00.420Z,1009.43
2023-04-16T03:33:00.438Z,1009.41
2023-04-16T03:34:00.461Z,1009.45
2023-04-16T03:35:00.517Z,1009.40
2023-04-16T03:36:00.562Z,1009.44
2023-04-16T03:37:00.482Z,1009.44
2023-04-16T03:38:00.548Z,1009.48
2023-04-16T03:39:00.551Z,1009.43
2023-04-16T03:40:00.615Z,1009.44
2023-04-16T03:41:00.683Z,1009.46
2023-04-16T03:42:00.639Z,1009.47
2023-04-16T03:43:00.659Z,1009.51
2023-04-16T03:44:00.769Z,1009.51
2023-04-16T03:45:00.726Z,1009.48
2023-04-16T03:46:00.777Z,1009.54
2023-04-16T03:47:00.796Z,1009.52
2023-04-16T03:48:00.796Z,1009.56
2023-04-16T03:49:00.872Z,1009.59
2023-04-16T03:50:00.826Z,1009.60
2023-04-16T03:51:00.830Z,1009.59
2023-04-16T03:52:00.989Z,1009.60
2023-04-16T03:53:00.878Z,1009.65
2023-04-16T03:54:00.976Z,1009.62
2023-04-16T03:55:00.940Z,1009.71
2023-04-16T03:56:00.996Z,1009.67
2023-04-16T03:57:01.033Z,1009.62
2023-04-16T03:58:00.983Z,1009.67
2023-04-16T03:59:01.020Z,1009.66
2023-04-16T04:00:01.051Z,1009.62
2023-04-16T04:01:01.057Z,1009.62
2023-04-16T04:02:01.202Z,1009.65
2023-04-16T04:03:01.357Z,1009.66
2023-04-16T04:04:01.331Z,1009.67
2023-04-16T04:05:01.188Z,1009.68
2023-04-16T04:06:01.166Z,1009.70
2023-04-16T04:07:01.277Z,1009.68
2023-04-16T04:08:01.293Z,1009.64
2023-04-16T04:09:01.320Z,1009.67
2023-04-16T04:10:01.283Z,1009.68
2023-04-16T04:11:01.300Z,1009.66
2023-04-16T04:12:01.317Z,1009.65
2023-04-16T04:13:01.379Z,1009.67
2023-04-16T04:14:01.438Z,1009.70
2023-04-16T04:15:01.500Z,1009.67
2023-04-16T04:16:01.440Z,1009.68
2023-04-16T04:17:01.487Z,1009.70
2023-04-16T04:18:01.525Z,1009.74
2023-04-16T04:19:01.580Z,1009.74
2023-04-16T04:20:02.066Z,1009.67
2023-04-16T04:21:01.527Z,1009.72
2023-04-16T04:22:01.587Z,1009.69
2023-04-16T04:23:01.635Z,1009.66
2023-04-16T04:24:01.629Z,1009.73
2023-04-16T04:25:02.206Z,1009.72
2023-04-16T04:26:01.810Z,1009.75
2023-04-16T04:27:01.678Z,1009.77
2023-04-16T04:28:01.742Z,1009.77
2023-04-16T04:29:01.924Z,1009.73
2023-04-16T04:30:01.827Z,1009.79
2023-04-16T04:31:01.821Z,1009.77
2023-04-16T04:32:01.931Z,1009.75
2023-04-16T04:33:01.913Z,1009.80
2023-04-16T04:34:01.961Z,1009.80
2023-04-16T04:35:01.948Z,1009.82
2023-04-16T04:36:01.940Z,1009.84
2023-04-16T04:37:01.905Z,1009.84
2023-04-16T04:38:02.699Z,1009.87
2023-04-16T04:39:01.936Z,1009.83
2023-04-16T04:40:01.969Z,1009.84
2023-04-16T04:41:02.059Z,1009.90
2023-04-16T04:42:01.978Z,1009.91
2023-04-16T04:43:02.004Z,1009.84
2023-04-16T04:44:02.014Z,1009.89
2023-04-16T04:45:02.106Z,1009.86
2023-04-16T04:46:02.124Z,1009.94
2023-04-16T04:47:02.084Z,1009.97
2023-04-16T04:48:02.196Z,1009.96
2023-04-16T04:49:02.116Z,1009.99
2023-04-16T04:50:02.205Z,1009.98
2023-04-16T04:51:03.570Z,1010.02
2023-04-16T04:52:02.193Z,1009.96
2023-04-16T04:53:02.197Z,1009.97
2023-04-16T04:54:02.219Z,1010.02
2023-04-16T04:55:02.422Z,1010.01
2023-04-16T04:56:12.095Z,1010.06
2023-04-16T04:57:03.263Z,1010.03
2023-04-16T04:58:02.365Z,1010.05
2023-04-16T04:59:02.319Z,1010.06
2023-04-16T05:00:02.344Z,1010.05
2023-04-16T05:01:02.443Z,1010.03
2023-04-16T05:02:02.409Z,1010.04
2023-04-16T05:03:02.506Z,1010.04
2023-04-16T05:04:02.483Z,1010.02
2023-04-16T05:05:02.455Z,1010.06
2023-04-16T05:06:02.478Z,1010.06
2023-04-16T05:07:02.491Z,1010.08
2023-04-16T05:08:02.556Z,1010.11
2023-04-16T05:09:02.565Z,1010.17
2023-04-16T05:10:02.546Z,1010.18
2023-04-16T05:11:02.559Z,1010.20
2023-04-16T05:12:02.680Z,1010.14
2023-04-16T05:13:02.616Z,1010.18
2023-04-16T05:14:02.693Z,1010.12
2023-04-16T05:15:02.646Z,1010.12
2023-04-16T05:16:02.666Z,1010.15
2023-04-16T05:17:02.905Z,1010.17
2023-04-16T05:18:02.749Z,1010.20
2023-04-16T05:19:02.738Z,1010.23
2023-04-16T05:20:02.768Z,1010.16
2023-04-16T05:21:02.759Z,1010.27
2023-04-16T05:22:02.824Z,1010.27
2023-04-16T05:23:02.765Z,1010.25
2023-04-16T05:24:02.808Z,1010.27
2023-04-16T05:25:02.850Z,1010.26
2023-04-16T05:26:02.834Z,1010.31
2023-04-16T05:27:02.887Z,1010.36
2023-04-16T05:28:02.912Z,1010.28
2023-04-16T05:29:02.929Z,1010.34
2023-04-16T05:30:02.958Z,1010.30
2023-04-16T05:31:03.055Z,1010.36
2023-04-16T05:32:03.014Z,1010.33
2023-04-16T05:33:03.029Z,1010.34
2023-04-16T05:34:03.049Z,1010.36
2023-04-16T05:35:03.070Z,1010.38
2023-04-16T05:36:03.130Z,1010.33
2023-04-16T05:37:03.430Z,1010.39
2023-04-16T05:38:03.134Z,1010.38
2023-04-16T05:39:03.118Z,1010.41
2023-04-16T05:40:03.183Z,1010.38
2023-04-16T05:41:03.244Z,1010.43
2023-04-16T05:42:03.154Z,1010.43
2023-04-16T05:43:03.165Z,1010.44
2023-04-16T05:44:03.312Z,1010.45
2023-04-16T05:45:03.203Z,1010.46
2023-04-16T05:46:03.351Z,1010.46
2023-04-16T05:47:03.321Z,1010.45
2023-04-16T05:48:03.276Z,1010.40
2023-04-16T05:49:03.307Z,1010.47
2023-04-16T05:50:03.328Z,1010.50
2023-04-16T05:51:03.369Z,1010.55
2023-04-16T05:52:03.474Z,1010.53
2023-04-16T05:53:03.433Z,1010.49
2023-04-16T05:54:03.456Z,1010.49
2023-04-16T05:55:03.419Z,1010.48
2023-04-16T05:56:03.424Z,1010.49
2023-04-16T05:57:03.526Z,1010.50
2023-04-16T05:58:03.577Z,1010.48
2023-04-16T05:59:03.474Z,1010.50
2023-04-16T06:00:03.496Z,1010.49
2023-04-16T06:01:03.574Z,1010.54
2023-04-16T06:02:03.580Z,1010.53
2023-04-16T06:03:03.865Z,1010.56
2023-04-16T06:04:03.844Z,1010.45
2023-04-16T06:05:03.628Z,1010.52
2023-04-16T06:06:04.417Z,1010.55
2023-04-16T06:07:03.705Z,1010.58
2023-04-16T06:08:03.720Z,1010.58
2023-04-16T06:09:03.730Z,1010.60
2023-04-16T06:10:03.688Z,1010.63
2023-04-16T06:11:03.663Z,1010.63
2023-04-16T06:12:03.686Z,1010.62
2023-04-16T06:13:03.795Z,1010.63
2023-04-16T06:14:03.734Z,1010.62
2023-04-16T06:15:03.729Z,1010.68
2023-04-16T06:16:03.797Z,1010.64
2023-04-16T06:17:03.784Z,1010.69
2023-04-16T06:18:03.854Z,1010.62
2023-04-16T06:19:03.831Z,1010.63
2023-04-16T06:20:03.856Z,1010.65
2023-04-16T06:21:03.863Z,1010.65
2023-04-16T06:22:03.901Z,1010.71
2023-04-16T06:23:03.908Z,1010.70
2023-04-16T06:24:03.887Z,1010.67
2023-04-16T06:25:03.871Z,1010.71
2023-04-16T06:26:03.898Z,1010.74
2023-04-16T06:27:04.904Z,1010.75
2023-04-16T06:28:03.925Z,1010.77
2023-04-16T06:29:03.934Z,1010.79
2023-04-16T06:30:03.977Z,1010.77
2023-04-16T06:31:04.031Z,1010.78
2023-04-16T06:32:04.661Z,1010.79
2023-04-16T06:33:04.084Z,1010.81
2023-04-16T06:34:04.026Z,1010.82
2023-04-16T06:35:04.122Z,1010.82
2023-04-16T06:36:04.167Z,1010.83
2023-04-16T06:37:04.224Z,1010.83
2023-04-16T06:38:04.303Z,1010.87
2023-04-16T06:39:04.160Z,1010.83
2023-04-16T06:40:04.106Z,1010.82
2023-04-16T06:41:04.133Z,1010.86
2023-04-16T06:42:04.166Z,1010.90
2023-04-16T06:43:04.236Z,1010.88
2023-04-16T06:44:04.170Z,1010.90
2023-04-16T06:45:04.205Z,1010.89
2023-04-16T06:46:04.172Z,1010.93
2023-04-16T06:47:04.328Z,1010.89
2023-04-16T06:48:04.312Z,1010.93
2023-04-16T06:49:04.209Z,1010.94
2023-04-16T06:50:04.223Z,1010.98
2023-04-16T06:51:04.279Z,1010.94
2023-04-16T06:52:05.814Z,1010.92
2023-04-16T06:53:04.356Z,1010.93
2023-04-16T06:54:04.511Z,1010.95
2023-04-16T06:55:04.579Z,1010.95
2023-04-16T06:56:04.346Z,1010.95
2023-04-16T06:57:04.540Z,1010.93
2023-04-16T06:58:04.997Z,1011.01
2023-04-16T06:59:04.352Z,1011.02
2023-04-16T07:00:05.681Z,1011.04
2023-04-16T07:01:04.458Z,1011.02
2023-04-16T07:02:04.490Z,1010.99
2023-04-16T07:03:04.473Z,1011.06
2023-04-16T07:04:04.635Z,1011.07
2023-04-16T07:05:04.525Z,1011.05
2023-04-16T07:06:04.430Z,1011.07
2023-04-16T07:07:04.466Z,1011.00
2023-04-16T07:08:05.218Z,1011.00
2023-04-16T07:09:05.771Z,1011.01
2023-04-16T07:10:04.539Z,1011.04
2023-04-16T07:11:04.509Z,1011.05
2023-04-16T07:12:04.646Z,1011.02
2023-04-16T07:13:04.614Z,1011.04
2023-04-16T07:14:04.528Z,1011.05
2023-04-16T07:15:04.654Z,1011.17
2023-04-16T07:16:04.580Z,1011.10
2023-04-16T07:17:04.549Z,1011.15
2023-04-16T07:18:05.274Z,1011.10
2023-04-16T07:19:04.640Z,1011.08
2023-04-16T07:20:04.592Z,1011.10
2023-04-16T07:21:04.594Z,1011.03
2023-04-16T07:22:04.613Z,1011.09
2023-04-16T07:23:04.599Z,1011.11
2023-04-16T07:24:04.898Z,1011.10
2023-04-16T07:25:04.774Z,1011.07
2023-04-16T07:26:04.709Z,1011.08
2023-04-16T07:27:04.629Z,1011.09
2023-04-16T07:28:04.641Z,1011.11
2023-04-16T07:29:04.651Z,1011.09
2023-04-16T07:30:04.661Z,1011.07
2023-04-16T07:31:04.742Z,1011.07
2023-04-16T07:32:04.710Z,1011.09
2023-04-16T07:33:04.811Z,1011.07
2023-04-16T07:34:04.653Z,1011.08
2023-04-16T07:35:04.672Z,1011.06
2023-04-16T07:36:04.731Z,1011.10
2023-04-16T07:37:04.648Z,1011.11
2023-04-16T07:38:04.772Z,1011.14
2023-04-16T07:39:04.665Z,1011.12
2023-04-16T07:40:04.680Z,1011.12
2023-04-16T07:41:04.762Z,1011.17
2023-04-16T07:42:04.674Z,1011.22
2023-04-16T07:43:04.689Z,1011.19
2023-04-16T07:44:04.676Z,1011.20
2023-04-16T07:45:04.702Z,1011.22
2023-04-16T07:46:04.762Z,1011.24
2023-04-16T07:47:05.667Z,1011.25
2023-04-16T07:48:04.826Z,1011.24
2023-04-16T07:49:04.652Z,1011.21
2023-04-16T07:50:04.723Z,1011.28
2023-04-16T07:51:04.660Z,1011.24
2023-04-16T07:52:04.660Z,1011.24
2023-04-16T07:53:04.667Z,1011.27
2023-04-16T07:54:04.656Z,1011.25
2023-04-16T07:55:04.731Z,1011.21
2023-04-16T07:56:04.664Z,1011.20
2023-04-16T07:57:04.673Z,1011.24
2023-04-16T07:58:04.638Z,1011.27
2023-04-16T07:59:14.861Z,1011.26
2023-04-16T08:00:05.728Z,1011.30
2023-04-16T08:01:04.633Z,1011.23
2023-04-16T08:02:04.662Z,1011.25
2023-04-16T08:03:04.808Z,1011.26
2023-04-16T08:04:04.727Z,1011.27
2023-04-16T08:05:04.700Z,1011.28
2023-04-16T08:06:04.619Z,1011.27
2023-04-16T08:07:04.588Z,1011.29
2023-04-16T08:08:04.598Z,1011.32
2023-04-16T08:09:04.603Z,1011.31
2023-04-16T08:10:04.632Z,1011.25
2023-04-16T08:11:04.610Z,1011.29
2023-04-16T08:12:04.546Z,1011.26
2023-04-16T08:13:04.575Z,1011.35
2023-04-16T08:14:04.520Z,1011.40
2023-04-16T08:15:04.493Z,1011.45
2023-04-16T08:16:04.609Z,1011.40
2023-04-16T08:17:04.492Z,1011.41
2023-04-16T08:18:04.506Z,1011.42
2023-04-16T08:19:04.486Z,1011.45
2023-04-16T08:20:04.440Z,1011.46
2023-04-16T08:21:04.498Z,1011.45
2023-04-16T08:22:04.401Z,1011.45
2023-04-16T08:23:04.383Z,1011.44
2023-04-16T08:24:04.373Z,1011.50
2023-04-16T08:25:05.496Z,1011.54
2023-04-16T08:26:04.340Z,1011.46
2023-04-16T08:27:17.309Z,1011.48
2023-04-16T08:28:05.323Z,1011.47
2023-04-16T08:29:04.297Z,1011.52
2023-04-16T08:30:04.244Z,1011.52
2023-04-16T08:31:04.388Z,1011.52
2023-04-16T08:32:04.305Z,1011.49
2023-04-16T08:33:04.230Z,1011.51
2023-04-16T08:34:04.202Z,1011.51
2023-04-16T08:35:04.189Z,1011.53
2023-04-16T08:36:04.221Z,1011.53
2023-04-16T08:37:04.229Z,1011.56
2023-04-16T08:38:04.099Z,1011.57
2023-04-16T08:39:04.098Z,1011.56
2023-04-16T08:40:04.052Z,1011.60
2023-04-16T08:41:04.093Z,1011.63
2023-04-16T08:42:04.076Z,1011.68
2023-04-16T08:43:04.024Z,1011.69
2023-04-16T08:44:03.971Z,1011.67
2023-04-16T08:45:03.971Z,1011.71
2023-04-16T08:46:04.067Z,1011.66
2023-04-16T08:47:04.043Z,1011.70
2023-04-16T08:48:03.868Z,1011.67
2023-04-16T08:49:03.846Z,1011.75
2023-04-16T08:50:03.825Z,1011.72
2023-04-16T08:51:03.794Z,1011.68
2023-04-16T08:52:03.842Z,1011.73
2023-04-16T08:53:03.757Z,1011.75
2023-04-16T08:54:03.701Z,1011.80
2023-04-16T08:55:03.702Z,1011.81
2023-04-16T08:56:03.670Z,1011.74
2023-04-16T08:57:03.725Z,1011.81
2023-04-16T08:58:03.588Z,1011.77
2023-04-16T08:59:03.578Z,1011.76
2023-04-16T09:00:03.544Z,1011.75
2023-04-16T09:01:03.557Z,1011.70
2023-04-16T09:02:03.671Z,1011.76
2023-04-16T09:03:03.576Z,1011.81
2023-04-16T09:04:03.826Z,1011.77
2023-04-16T09:05:03.762Z,1011.81
2023-04-16T09:06:04.231Z,1011.79
2023-04-16T09:07:03.437Z,1011.79
2023-04-16T09:08:03.358Z,1011.77
2023-04-16T09:09:03.325Z,1011.82
2023-04-16T09:10:03.362Z,1011.83
2023-04-16T09:11:03.295Z,1011.81
2023-04-16T09:12:03.325Z,1011.88
2023-04-16T09:13:03.511Z,1011.84
2023-04-16T09:14:03.226Z,1011.90
2023-04-16T09:15:03.195Z,1011.87
2023-04-16T09:16:03.200Z,1011.90
2023-04-16T09:17:03.183Z,1011.92
2023-04-16T09:18:03.252Z,1011.91
2023-04-16T09:19:03.120Z,1011.93
2023-04-16T09:20:03.074Z,1011.90
2023-04-16T09:21:03.070Z,1011.91
2023-04-16T09:22:03.018Z,1011.88
2023-04-16T09:23:03.060Z,1011.91
2023-04-16T09:24:02.970Z,1011.89
2023-04-16T09:25:03.135Z,1011.89
2023-04-16T09:26:02.956Z,1011.96
2023-04-16T09:27:02.870Z,1011.91
2023-04-16T09:28:02.894Z,1011.93
2023-04-16T09:29:02.823Z,1011.93
2023-04-16T09:30:02.845Z,1011.97
2023-04-16T09:31:02.826Z,1011.96
2023-04-16T09:32:02.779Z,1011.95
2023-04-16T09:33:02.816Z,1011.94
2023-04-16T09:34:02.682Z,1011.93
2023-04-16T09:35:02.691Z,1011.95
2023-04-16T09:36:02.700Z,1011.94
2023-04-16T09:37:02.676Z,1011.97
2023-04-16T09:38:02.620Z,1011.99
2023-04-16T09:39:02.552Z,1012.14
2023-04-16T09:40:02.598Z,1012.06
2023-04-16T09:41:02.562Z,1012.04
2023-04-16T09:42:03.016Z,1012.04
2023-04-16T09:43:02.554Z,1012.06
2023-04-16T09:44:02.499Z,1012.05
2023-04-16T09:45:04.968Z,1012.06
2023-04-16T09:46:07.267Z,1012.06
2023-04-16T09:47:03.412Z,1012.05
2023-04-16T09:48:02.382Z,1012.04
2023-04-16T09:49:02.314Z,1012.02
2023-04-16T09:50:02.822Z,1012.07
2023-04-16T09:51:02.277Z,1012.06
2023-04-16T09:52:02.417Z,1012.10
2023-04-16T09:53:02.353Z,1012.16
2023-04-16T09:54:02.199Z,1012.16
2023-04-16T09:55:02.160Z,1012.10
2023-04-16T09:56:02.163Z,1012.15
2023-04-16T09:57:02.204Z,1012.18
2023-04-16T09:58:02.154Z,1012.14
2023-04-16T09:59:02.429Z,1012.11
2023-04-16T10:00:02.121Z,1012.14
2023-04-16T10:01:02.186Z,1012.12
2023-04-16T10:02:14.576Z,1012.15
2023-04-16T10:03:03.925Z,1012.15
2023-04-16T10:04:02.075Z,1012.14
2023-04-16T10:05:02.048Z,1012.15
2023-04-16T10:06:02.154Z,1012.19
2023-04-16T10:07:02.014Z,1012.18
2023-04-16T10:08:01.916Z,1012.20
2023-04-16T10:09:01.876Z,1012.18
2023-04-16T10:10:01.915Z,1012.18
2023-04-16T10:11:02.129Z,1012.16
2023-04-16T10:12:02.070Z,1012.19
2023-04-16T10:13:01.782Z,1012.20
2023-04-16T10:14:01.767Z,1012.17
2023-04-16T10:15:01.803Z,1012.20
2023-04-16T10:16:01.733Z,1012.18
2023-04-16T10:17:01.805Z,1012.21
2023-04-16T10:18:01.731Z,1012.20
2023-04-16T10:19:01.645Z,1012.23
2023-04-16T10:20:01.809Z,1012.24
2023-04-16T10:21:01.608Z,1012.24
2023-04-16T10:22:01.576Z,1012.23
2023-04-16T10:23:01.612Z,1012.22
2023-04-16T10:24:01.558Z,1012.28
2023-04-16T10:25:01.543Z,1012.25
2023-04-16T10:26:01.496Z,1012.22
2023-04-16T10:27:01.435Z,1012.23
2023-04-16T10:28:01.371Z,1012.24
2023-04-16T10:29:01.336Z,1012.23
2023-04-16T10:30:01.417Z,1012.22
2023-04-16T10:31:01.350Z,1012.27
2023-04-16T10:32:01.283Z,1012.25
2023-04-16T10:33:01.270Z,1012.20
2023-04-16T10:34:01.263Z,1012.29
2023-04-16T10:35:01.157Z,1012.28
2023-04-16T10:36:07.085Z,1012.33
2023-04-16T10:37:02.093Z,1012.27
2023-04-16T10:38:01.045Z,1012.24
2023-04-16T10:39:01.080Z,1012.29
2023-04-16T10:40:00.960Z,1012.32
2023-04-16T10:41:00.987Z,1012.22
2023-04-16T10:42:00.887Z,1012.29
2023-04-16T10:43:00.851Z,1012.19
2023-04-16T10:44:00.829Z,1012.26
2023-04-16T10:45:00.784Z,1012.21
2023-04-16T10:46:00.771Z,1012.26
2023-04-16T10:47:00.771Z,1012.24
2023-04-16T10:48:00.771Z,1012.22
2023-04-16T10:49:00.643Z,1012.20
2023-04-16T10:50:00.600Z,1012.21
2023-04-16T10:51:00.570Z,1012.22
2023-04-16T10:52:00.592Z,1012.21
2023-04-16T10:53:00.515Z,1012.24
2023-04-16T10:54:00.591Z,1012.22
2023-04-16T10:55:00.516Z,1012.26
2023-04-16T10:56:00.374Z,1012.21
2023-04-16T10:57:02.273Z,1012.19
2023-04-16T10:58:00.348Z,1012.20
2023-04-16T10:59:00.822Z,1012.20
2023-04-16T11:00:00.244Z,1012.15
2023-04-16T11:01:00.180Z,1012.13
2023-04-16T11:02:00.336Z,1012.15
2023-04-16T11:03:00.281Z,1012.14
2023-04-16T11:04:00.362Z,1012.15
2023-04-16T11:05:00.285Z,1012.15
2023-04-16T11:06:00.594Z,1012.10
2023-04-16T11:07:00.024Z,1012.14
2023-04-16T11:07:59.937Z,1012.16
2023-04-16T11:08:59.924Z,1012.10
2023-04-16T11:10:00.225Z,1012.09
2023-04-16T11:10:59.813Z,1012.11
2023-04-16T11:11:59.769Z,1012.11
2023-04-16T11:12:59.739Z,1012.06
2023-04-16T11:13:59.689Z,1012.08
2023-04-16T11:14:59.714Z,1012.03
2023-04-16T11:15:59.634Z,1012.04
2023-04-16T11:16:59.638Z,1012.08
2023-04-16T11:17:59.598Z,1012.05
2023-04-16T11:18:59.499Z,1012.09
2023-04-16T11:19:59.451Z,1012.07
2023-04-16T11:20:59.418Z,1012.10
2023-04-16T11:21:59.431Z,1012.01
2023-04-16T11:22:59.367Z,1012.09
2023-04-16T11:23:59.295Z,1012.15
2023-04-16T11:24:59.317Z,1012.11
2023-04-16T11:25:59.226Z,1012.06
2023-04-16T11:26:59.206Z,1012.07
2023-04-16T11:27:59.369Z,1012.05
2023-04-16T11:28:59.119Z,1012.14
2023-04-16T11:29:59.184Z,1012.05
2023-04-16T11:30:59.050Z,1012.04
2023-04-16T11:31:58.978Z,1012.04
2023-04-16T11:32:59.075Z,1012.12
2023-04-16T11:33:58.912Z,1012.07
2023-04-16T11:34:58.936Z,1012.08
2023-04-16T11:35:58.841Z,1012.03
2023-04-16T11:36:58.824Z,1011.96
2023-04-16T11:37:59.848Z,1012.00
2023-04-16T11:38:58.738Z,1012.02
2023-04-16T11:39:59.239Z,1012.05
2023-04-16T11:40:58.642Z,1012.08
2023-04-16T11:41:58.613Z,1012.09
2023-04-16T11:42:59.849Z,1012.11
2023-04-16T11:43:58.545Z,1012.14
2023-04-16T11:44:58.488Z,1012.07
2023-04-16T11:45:58.452Z,1012.12
2023-04-16T11:46:58.524Z,1012.06
2023-04-16T11:47:58.488Z,1012.05
2023-04-16T11:48:58.320Z,1012.08
2023-04-16T11:49:58.320Z,1012.05
2023-04-16T11:50:58.235Z,1012.06
2023-04-16T11:51:58.259Z,1012.04
2023-04-16T11:52:58.148Z,1012.13
2023-04-16T11:53:58.121Z,1012.07
2023-04-16T11:54:58.093Z,1012.08
2023-04-16T11:55:58.888Z,1012.10
2023-04-16T11:56:58.065Z,1012.09
2023-04-16T11:57:57.954Z,1012.03
2023-04-16T11:58:57.917Z,1012.10
2023-04-16T12:00:02.250Z,1012.04
2023-04-16T12:00:58.902Z,1012.10
2023-04-16T12:01:57.960Z,1012.15
2023-04-16T12:02:57.842Z,1012.11
2023-04-16T12:03:57.974Z,1012.18
2023-04-16T12:04:57.806Z,1012.13
2023-04-16T12:05:57.632Z,1012.11